createdAt,value
2023-05-22T00:00:02.451Z,17.98
2023-05-22T00:02:29.263Z,25.40
2023-05-22T00:04:58.830Z,19.67
2023-05-22T00:07:27.541Z,17.50
2023-05-22T00:09:54.237Z,21.08
2023-05-22T00:12:20.876Z,21.55
2023-05-22T00:14:47.529Z,20.92
2023-05-22T00:17:15.081Z,22.98
2023-05-22T00:19:42.366Z,22.52
2023-05-22T00:22:10.062Z,26.25
2023-05-22T00:24:36.784Z,24.98
2023-05-22T00:27:03.608Z,28.88
2023-05-22T00:29:30.321Z,25.02
2023-05-22T00:31:57.201Z,20.92
2023-05-22T00:34:23.829Z,26.85
2023-05-22T00:36:50.482Z,25.98
2023-05-22T00:39:17.135Z,23.13
2023-05-22T00:41:43.803Z,21.05
2023-05-22T00:44:10.609Z,30.38
2023-05-22T00:46:38.146Z,27.40
2023-05-22T00:49:05.047Z,33.40
2023-05-22T00:51:31.852Z,25.70
2023-05-22T00:53:58.627Z,25.02
2023-05-22T00:56:27.101Z,29.10
2023-05-22T00:58:53.722Z,24.05
2023-05-22T01:01:20.685Z,25.70
2023-05-22T01:03:47.947Z,26.20
2023-05-22T01:06:17.958Z,26.92
2023-05-22T01:08:45.073Z,26.52
2023-05-22T01:11:26.811Z,28.58
2023-05-22T01:14:24.450Z,25.88
2023-05-22T01:17:00.181Z,26.83
2023-05-22T01:20:06.112Z,21.98
2023-05-22T01:23:00.269Z,26.90
2023-05-22T01:25:53.843Z,21.80
2023-05-22T01:28:57.739Z,32.95
2023-05-22T01:31:31.619Z,30.10
2023-05-22T01:34:01.061Z,31.33
2023-05-22T01:36:31.454Z,28.55
2023-05-22T01:39:01.376Z,29.88
2023-05-22T01:41:29.885Z,25.67
2023-05-22T01:43:56.912Z,27.83
2023-05-22T01:46:30.644Z,24.33
2023-05-22T01:48:58.337Z,26.35
2023-05-22T01:51:37.229Z,27.15
2023-05-22T01:54:10.634Z,32.45
2023-05-22T01:59:26.231Z,32.72
2023-05-22T02:01:54.630Z,26.95
2023-05-22T02:04:23.091Z,30.17
2023-05-22T02:06:53.063Z,30.52
2023-05-22T02:09:23.445Z,33.53
2023-05-22T02:11:50.884Z,37.78
2023-05-22T02:14:18.653Z,35.08
2023-05-22T02:16:47.822Z,32.75
2023-05-22T02:19:15.406Z,38.35
2023-05-22T02:21:42.374Z,41.15
2023-05-22T02:24:09.304Z,36.28
2023-05-22T02:26:36.039Z,35.13
2023-05-22T02:29:03.397Z,31.92
2023-05-22T02:31:30.062Z,38.38
2023-05-22T02:33:56.676Z,30.50
2023-05-22T02:36:23.491Z,34.10
2023-05-22T02:38:50.136Z,31.50
2023-05-22T02:41:16.744Z,36.17
2023-05-22T02:43:43.396Z,41.60
2023-05-22T02:46:10.358Z,39.60
2023-05-22T02:48:37.088Z,31.60
2023-05-22T02:51:03.782Z,38.92
2023-05-22T02:53:30.416Z,37.22
2023-05-22T02:55:59.097Z,37.15
2023-05-22T02:58:25.810Z,42.05
2023-05-22T03:00:53.842Z,43.05
2023-05-22T03:03:20.718Z,44.15
2023-05-22T03:05:47.565Z,43.13
2023-05-22T03:08:16.065Z,38.78
2023-05-22T03:10:42.776Z,43.67
2023-05-22T03:13:09.410Z,38.22
2023-05-22T03:15:36.041Z,44.78
2023-05-22T03:18:03.159Z,44.15
2023-05-22T03:20:29.940Z,51.97
2023-05-22T03:22:56.527Z,52.28
2023-05-22T03:25:23.189Z,52.67
2023-05-22T03:27:49.938Z,49.00
2023-05-22T03:30:16.617Z,49.83
2023-05-22T03:32:43.253Z,49.35
2023-05-22T03:35:10.330Z,52.85
2023-05-22T03:37:36.999Z,53.65
2023-05-22T03:40:04.897Z,58.30
2023-05-22T03:42:31.584Z,52.42
2023-05-22T03:44:58.224Z,53.40
2023-05-22T03:47:24.929Z,59.67
2023-05-22T03:49:51.531Z,56.08
2023-05-22T03:52:18.184Z,62.20
2023-05-22T03:54:44.810Z,64.15
2023-05-22T03:57:11.460Z,74.35
2023-05-22T03:59:38.120Z,86.40
2023-05-22T04:02:05.520Z,87.60
2023-05-22T04:04:34.168Z,90.30
2023-05-22T04:07:02.778Z,112.82
2023-05-22T04:09:32.052Z,99.63
2023-05-22T04:11:58.821Z,108.07
2023-05-22T04:14:26.315Z,107.55
2023-05-22T04:16:52.960Z,112.00
2023-05-22T04:19:19.842Z,112.53
2023-05-22T04:21:47.595Z,122.80
2023-05-22T04:24:14.238Z,118.05
2023-05-22T04:26:42.576Z,121.43
2023-05-22T04:29:10.706Z,123.68
2023-05-22T04:31:37.559Z,121.22
2023-05-22T04:34:05.284Z,112.80
2023-05-22T04:36:31.940Z,117.65
2023-05-22T04:39:00.461Z,122.63
2023-05-22T04:41:27.161Z,116.35
2023-05-22T04:43:54.117Z,113.53
2023-05-22T04:46:21.318Z,114.32
2023-05-22T04:48:48.033Z,119.13
2023-05-22T04:51:14.788Z,109.32
2023-05-22T04:53:41.393Z,109.53
2023-05-22T04:56:08.147Z,116.80
2023-05-22T04:58:34.821Z,107.47
2023-05-22T05:01:01.463Z,107.13
2023-05-22T05:03:28.744Z,101.72
2023-05-22T05:05:56.802Z,103.20
2023-05-22T05:08:23.451Z,105.90
2023-05-22T05:10:50.081Z,118.38
2023-05-22T05:13:16.659Z,116.65
2023-05-22T05:15:43.363Z,117.28
2023-05-22T05:18:10.059Z,113.15
2023-05-22T05:20:36.933Z,116.47
2023-05-22T05:23:03.849Z,112.78
2023-05-22T05:25:30.688Z,115.63
2023-05-22T05:27:57.709Z,112.45
2023-05-22T05:30:24.558Z,110.53
2023-05-22T05:32:51.260Z,108.25
2023-05-22T05:35:18.087Z,109.03
2023-05-22T05:37:44.713Z,103.72
2023-05-22T05:40:12.026Z,113.93
2023-05-22T05:42:38.643Z,123.50
2023-05-22T05:45:05.634Z,121.30
2023-05-22T05:47:32.250Z,110.90
2023-05-22T05:49:58.913Z,118.05
2023-05-22T05:52:27.183Z,115.57
2023-05-22T05:54:54.013Z,123.70
2023-05-22T05:57:20.978Z,132.38
2023-05-22T05:59:47.950Z,128.30
2023-05-22T06:02:14.725Z,127.50
2023-05-22T06:04:42.313Z,131.65
2023-05-22T06:07:09.077Z,120.38
2023-05-22T06:09:36.428Z,129.60
2023-05-22T06:12:03.237Z,117.25
2023-05-22T06:14:30.736Z,108.55
2023-05-22T06:16:57.553Z,109.68
2023-05-22T06:19:24.314Z,105.13
2023-05-22T06:21:52.231Z,109.38
2023-05-22T06:24:19.417Z,120.00
2023-05-22T06:26:46.532Z,121.32
2023-05-22T06:29:13.203Z,106.57
2023-05-22T06:31:39.891Z,107.63
2023-05-22T06:34:06.901Z,112.32
2023-05-22T06:36:34.858Z,121.38
2023-05-22T06:39:02.609Z,111.03
2023-05-22T06:41:29.331Z,116.40
2023-05-22T06:43:56.044Z,116.97
2023-05-22T06:46:25.925Z,118.72
2023-05-22T06:48:52.963Z,110.47
2023-05-22T06:51:19.670Z,103.15
2023-05-22T06:53:46.339Z,104.68
2023-05-22T06:56:12.975Z,100.97
2023-05-22T06:58:39.739Z,97.85
2023-05-22T07:01:06.341Z,96.47
2023-05-22T07:03:33.084Z,93.93
2023-05-22T07:05:59.872Z,96.63
2023-05-22T07:08:28.367Z,96.68
2023-05-22T07:10:56.489Z,98.03
2023-05-22T07:13:23.602Z,87.68
2023-05-22T07:15:50.542Z,74.60
2023-05-22T07:18:17.426Z,77.40
2023-05-22T07:20:45.008Z,72.80
2023-05-22T07:23:11.758Z,70.80
2023-05-22T07:25:38.541Z,65.30
2023-05-22T07:28:09.069Z,59.05
2023-05-22T07:30:38.588Z,55.85
2023-05-22T07:33:06.373Z,51.75
2023-05-22T07:35:33.260Z,46.75
2023-05-22T07:37:59.893Z,47.30
2023-05-22T07:40:27.529Z,50.75
2023-05-22T07:42:54.183Z,51.83
2023-05-22T07:45:20.902Z,49.63
2023-05-22T07:47:47.584Z,55.80
2023-05-22T07:50:14.397Z,50.15
2023-05-22T07:52:41.295Z,53.45
2023-05-22T07:55:08.521Z,60.03
2023-05-22T07:57:36.302Z,55.03
2023-05-22T08:00:09.513Z,55.20
2023-05-22T08:02:36.601Z,52.85
2023-05-22T08:05:04.642Z,61.30
2023-05-22T08:07:32.979Z,69.32
2023-05-22T08:10:02.378Z,72.88
2023-05-22T08:12:28.954Z,68.97
2023-05-22T08:14:55.899Z,55.03
2023-05-22T08:17:22.682Z,53.22
2023-05-22T08:19:49.561Z,49.28
2023-05-22T08:22:16.304Z,47.20
2023-05-22T08:24:42.957Z,45.70
2023-05-22T08:27:09.603Z,43.30
2023-05-22T08:29:36.621Z,44.00
2023-05-22T08:32:03.498Z,44.90
2023-05-22T08:34:30.146Z,45.88
2023-05-22T08:36:56.841Z,42.30
2023-05-22T08:39:23.457Z,45.88
2023-05-22T08:41:50.318Z,45.58
2023-05-22T08:44:19.799Z,45.63
2023-05-22T08:46:47.386Z,43.38
2023-05-22T08:49:14.112Z,40.45
2023-05-22T08:51:42.498Z,43.67
2023-05-22T08:54:09.952Z,46.00
2023-05-22T08:56:39.843Z,42.72
2023-05-22T08:59:12.734Z,42.63
2023-05-22T09:01:39.514Z,44.03
2023-05-22T09:04:06.276Z,47.45
2023-05-22T09:06:32.991Z,43.25
2023-05-22T09:08:59.890Z,37.45
2023-05-22T09:11:26.674Z,37.45
2023-05-22T09:13:53.364Z,37.08
2023-05-22T09:16:20.286Z,39.15
2023-05-22T09:18:47.046Z,43.08
2023-05-22T09:21:29.668Z,38.15
2023-05-22T09:24:01.625Z,43.10
2023-05-22T09:26:29.447Z,39.35
2023-05-22T09:28:57.322Z,39.53
2023-05-22T09:31:24.114Z,41.05
2023-05-22T09:33:50.983Z,36.05
2023-05-22T09:36:18.024Z,35.67
2023-05-22T09:38:45.107Z,38.42
2023-05-22T09:41:11.769Z,32.67
2023-05-22T09:43:38.417Z,37.38
2023-05-22T09:46:05.313Z,29.65
2023-05-22T09:48:37.299Z,38.25
2023-05-22T09:51:05.203Z,41.50
2023-05-22T09:53:33.227Z,44.60
2023-05-22T09:56:02.053Z,39.45
2023-05-22T09:58:31.429Z,35.83
2023-05-22T10:00:59.507Z,40.33
2023-05-22T10:03:27.621Z,41.47
2023-05-22T10:05:58.561Z,37.28
2023-05-22T10:08:28.187Z,37.13
2023-05-22T10:10:54.936Z,35.92
2023-05-22T10:13:22.320Z,37.67
2023-05-22T10:15:49.917Z,33.58
2023-05-22T10:18:17.667Z,32.30
2023-05-22T10:20:47.226Z,37.83
2023-05-22T10:23:16.603Z,32.08
2023-05-22T10:25:45.497Z,42.20
2023-05-22T10:28:19.945Z,42.42
2023-05-22T10:31:13.811Z,37.63
2023-05-22T10:33:51.647Z,33.72
2023-05-22T10:36:29.150Z,34.63
2023-05-22T10:38:55.886Z,36.00
2023-05-22T10:41:26.458Z,36.47
2023-05-22T10:43:56.695Z,36.17
2023-05-22T10:46:23.326Z,35.25
2023-05-22T10:48:53.291Z,34.95
2023-05-22T10:51:21.985Z,29.30
2023-05-22T10:54:06.795Z,27.95
2023-05-22T10:56:35.512Z,30.60
2023-05-22T10:59:05.350Z,29.85
2023-05-22T11:01:38.332Z,32.80
2023-05-22T11:06:36.316Z,28.45
2023-05-22T11:09:26.173Z,37.28
2023-05-22T11:12:11.834Z,32.63
2023-05-22T11:14:38.843Z,30.95
2023-05-22T11:17:06.562Z,32.10
2023-05-22T11:19:33.506Z,34.47
2023-05-22T11:22:01.980Z,26.55
2023-05-22T11:24:32.769Z,24.70
2023-05-22T11:27:09.115Z,27.92
2023-05-22T11:29:37.235Z,25.40
2023-05-22T11:32:04.010Z,27.35
2023-05-22T11:34:30.760Z,27.45
2023-05-22T11:37:00.616Z,26.88
2023-05-22T11:39:27.692Z,26.42
2023-05-22T11:41:54.748Z,29.05
2023-05-22T11:44:21.495Z,23.83
2023-05-22T11:46:48.292Z,33.00
2023-05-22T11:49:15.145Z,30.33
2023-05-22T11:51:42.284Z,26.63
2023-05-22T11:54:08.905Z,31.30
2023-05-22T11:56:35.537Z,33.65
2023-05-22T11:59:02.447Z,29.10
2023-05-22T12:01:29.113Z,34.08
2023-05-22T12:03:56.075Z,36.97
2023-05-22T12:06:23.158Z,30.25
2023-05-22T12:08:51.358Z,32.10
2023-05-22T12:11:18.112Z,40.22
2023-05-22T12:13:45.580Z,33.63
2023-05-22T12:16:20.185Z,36.17
2023-05-22T12:18:46.858Z,38.63
2023-05-22T12:21:13.614Z,35.80
2023-05-22T12:23:49.291Z,37.47
2023-05-22T12:26:16.353Z,34.10
2023-05-22T12:28:43.580Z,31.70
2023-05-22T12:31:10.295Z,32.83
2023-05-22T12:33:39.721Z,34.47
2023-05-22T12:36:10.475Z,34.45
2023-05-22T12:38:39.407Z,37.65
2023-05-22T12:41:06.372Z,33.03
2023-05-22T12:43:33.134Z,35.35
2023-05-22T12:46:01.047Z,32.00
2023-05-22T12:48:29.309Z,39.95
2023-05-22T12:50:55.995Z,34.17
2023-05-22T12:53:22.738Z,34.75
2023-05-22T12:55:49.352Z,36.83
2023-05-22T12:58:16.218Z,39.53
2023-05-22T13:00:42.864Z,34.17
2023-05-22T13:03:10.041Z,36.15
2023-05-22T13:05:36.704Z,35.20
2023-05-22T13:08:03.399Z,36.28
2023-05-22T13:10:30.661Z,33.38
2023-05-22T13:12:57.480Z,39.55
2023-05-22T13:15:25.497Z,32.22
2023-05-22T13:17:56.995Z,32.78
2023-05-22T13:20:23.732Z,32.35
2023-05-22T13:22:50.471Z,28.83
2023-05-22T13:25:19.140Z,25.67
2023-05-22T13:27:46.382Z,35.78
2023-05-22T13:30:13.384Z,32.22
2023-05-22T13:32:40.359Z,30.98
2023-05-22T13:35:07.354Z,33.97
2023-05-22T13:37:34.107Z,37.35
2023-05-22T13:40:01.249Z,29.67
2023-05-22T13:42:28.039Z,30.80
2023-05-22T13:44:54.821Z,36.30
2023-05-22T13:47:23.032Z,27.25
2023-05-22T13:49:49.857Z,29.80
2023-05-22T13:52:16.597Z,31.50
2023-05-22T13:54:43.567Z,31.85
2023-05-22T13:57:10.400Z,30.15
2023-05-22T13:59:39.563Z,30.58
2023-05-22T14:02:07.505Z,37.90
2023-05-22T14:04:34.487Z,40.53
2023-05-22T14:07:01.357Z,43.05
2023-05-22T14:09:28.099Z,35.17
2023-05-22T14:11:54.776Z,35.25
2023-05-22T14:14:24.128Z,42.03
2023-05-22T14:16:51.733Z,37.58
2023-05-22T14:19:19.301Z,37.70
2023-05-22T14:21:48.756Z,35.83
2023-05-22T14:24:15.986Z,35.80
2023-05-22T14:26:42.718Z,37.45
2023-05-22T14:29:09.495Z,36.65
2023-05-22T14:31:51.773Z,37.88
2023-05-22T14:34:18.979Z,32.33
2023-05-22T14:36:46.334Z,37.13
2023-05-22T14:39:13.007Z,37.38
2023-05-22T14:41:39.657Z,39.20
2023-05-22T14:44:06.473Z,36.60
2023-05-22T14:46:33.174Z,38.20
2023-05-22T14:48:59.900Z,35.05
2023-05-22T14:51:26.600Z,31.60
2023-05-22T14:53:53.258Z,37.85
2023-05-22T14:56:20.081Z,32.85
2023-05-22T14:58:46.686Z,36.50
2023-05-22T15:01:13.625Z,39.38
2023-05-22T15:03:40.365Z,40.20
2023-05-22T15:06:07.259Z,36.72
2023-05-22T15:08:33.896Z,31.23
2023-05-22T15:11:00.488Z,29.90
2023-05-22T15:13:27.111Z,35.72
2023-05-22T15:15:53.803Z,33.25
2023-05-22T15:18:20.623Z,42.72
2023-05-22T15:20:47.214Z,39.22
2023-05-22T15:23:13.946Z,33.95
2023-05-22T15:25:42.945Z,38.20
2023-05-22T15:28:09.605Z,35.00
2023-05-22T15:30:38.774Z,33.10
2023-05-22T15:33:05.617Z,38.53
2023-05-22T15:35:32.630Z,34.63
2023-05-22T15:37:59.507Z,40.55
2023-05-22T15:40:26.352Z,36.08
2023-05-22T15:42:54.033Z,33.28
2023-05-22T15:45:21.287Z,33.97
2023-05-22T15:47:48.096Z,30.33
2023-05-22T15:50:14.808Z,39.95
2023-05-22T15:52:41.388Z,33.17
2023-05-22T15:55:08.374Z,31.83
2023-05-22T15:57:35.075Z,35.42
2023-05-22T16:00:01.862Z,32.08
2023-05-22T16:02:28.508Z,37.20
2023-05-22T16:04:55.149Z,34.50
2023-05-22T16:07:21.810Z,37.00
2023-05-22T16:09:51.726Z,39.00
2023-05-22T16:12:18.985Z,34.65
2023-05-22T16:14:45.837Z,40.22
2023-05-22T16:17:12.515Z,41.67
2023-05-22T16:19:39.376Z,38.35
2023-05-22T16:22:06.161Z,41.13
2023-05-22T16:24:32.792Z,42.35
2023-05-22T16:26:59.983Z,33.67
2023-05-22T16:29:26.742Z,34.95
2023-05-22T16:31:53.431Z,35.88
2023-05-22T16:34:20.190Z,35.95
2023-05-22T16:36:47.224Z,39.22
2023-05-22T16:39:15.483Z,39.85
2023-05-22T16:41:42.172Z,40.20
2023-05-22T16:44:08.745Z,42.60
2023-05-22T16:46:35.371Z,36.92
2023-05-22T16:49:02.183Z,43.33
2023-05-22T16:51:28.789Z,43.85
2023-05-22T16:53:55.417Z,38.90
2023-05-22T16:56:22.795Z,41.53
2023-05-22T16:58:49.564Z,41.95
2023-05-22T17:01:16.247Z,40.60
2023-05-22T17:03:43.069Z,38.90
2023-05-22T17:06:09.831Z,42.08
2023-05-22T17:08:36.455Z,38.50
2023-05-22T17:11:03.217Z,41.25
2023-05-22T17:13:29.954Z,43.50
2023-05-22T17:15:56.763Z,40.17
2023-05-22T17:18:23.368Z,43.55
2023-05-22T17:20:51.117Z,43.72
2023-05-22T17:23:17.996Z,42.10
2023-05-22T17:25:46.812Z,36.63
2023-05-22T17:28:14.638Z,38.40
2023-05-22T17:30:42.795Z,41.38
2023-05-22T17:33:10.170Z,42.67
2023-05-22T17:35:36.917Z,40.53
2023-05-22T17:38:03.582Z,33.70
2023-05-22T17:40:40.432Z,37.67
2023-05-22T17:43:11.383Z,40.03
2023-05-22T17:45:38.168Z,33.70
2023-05-22T17:48:07.999Z,30.65
2023-05-22T17:50:34.865Z,38.88
2023-05-22T17:53:01.538Z,38.20
2023-05-22T17:55:28.165Z,29.58
2023-05-22T17:57:55.507Z,33.38
2023-05-22T18:00:22.274Z,37.85
2023-05-22T18:02:52.244Z,34.80
2023-05-22T18:05:19.030Z,29.83
2023-05-22T18:07:45.887Z,38.25
2023-05-22T18:10:12.628Z,26.23
2023-05-22T18:12:39.590Z,14.35
2023-05-22T18:15:09.684Z,5.28
2023-05-22T18:17:36.540Z,4.57
2023-05-22T18:20:08.927Z,4.78
2023-05-22T18:22:38.758Z,9.20
2023-05-22T18:25:07.462Z,7.15
2023-05-22T18:27:37.771Z,8.25
2023-05-22T18:30:05.593Z,4.88
2023-05-22T18:32:32.344Z,5.15
2023-05-22T18:35:00.301Z,6.25
2023-05-22T18:37:26.953Z,7.70
2023-05-22T18:39:53.796Z,3.83
2023-05-22T18:42:20.802Z,3.60
2023-05-22T18:44:48.979Z,7.72
2023-05-22T18:47:16.300Z,13.18
2023-05-22T18:49:43.662Z,3.05
2023-05-22T18:52:10.676Z,7.38
2023-05-22T18:54:37.501Z,10.35
2023-05-22T18:57:06.823Z,8.07
2023-05-22T18:59:41.570Z,10.05
2023-05-22T19:02:08.896Z,13.35
2023-05-22T19:04:35.996Z,11.93
2023-05-22T19:07:12.236Z,8.98
2023-05-22T19:09:46.081Z,7.65
2023-05-22T19:12:16.182Z,6.85
2023-05-22T19:14:51.733Z,4.15
2023-05-22T19:17:19.542Z,5.15
2023-05-22T19:19:46.980Z,7.03
2023-05-22T19:22:14.560Z,7.68
2023-05-22T19:24:42.537Z,16.10
2023-05-22T19:27:09.261Z,6.03
2023-05-22T19:29:36.044Z,11.02
2023-05-22T19:32:02.835Z,5.18
2023-05-22T19:34:29.471Z,6.90
2023-05-22T19:36:57.928Z,4.82
2023-05-22T19:39:25.053Z,6.00
2023-05-22T19:41:52.681Z,5.35
2023-05-22T19:44:19.584Z,6.68
2023-05-22T19:46:46.607Z,10.35
2023-05-22T19:49:13.408Z,7.32
2023-05-22T19:51:40.104Z,9.70
2023-05-22T19:54:06.784Z,8.23
2023-05-22T19:56:35.039Z,5.60
2023-05-22T19:59:01.838Z,9.10
2023-05-22T20:01:28.825Z,11.40
2023-05-22T20:03:56.444Z,11.35
2023-05-22T20:06:23.282Z,11.20
2023-05-22T20:08:49.927Z,7.35
2023-05-22T20:11:16.617Z,9.35
2023-05-22T20:13:43.262Z,6.53
2023-05-22T20:16:12.665Z,9.35
2023-05-22T20:18:41.165Z,9.05
2023-05-22T20:21:09.906Z,8.63
2023-05-22T20:23:36.575Z,9.00
2023-05-22T20:26:03.171Z,9.68
2023-05-22T20:28:29.885Z,9.73
2023-05-22T20:30:56.623Z,10.73
2023-05-22T20:33:23.243Z,11.98
2023-05-22T20:35:52.871Z,9.05
2023-05-22T20:38:20.244Z,10.00
2023-05-22T20:40:47.574Z,7.85
2023-05-22T20:43:14.721Z,9.48
2023-05-22T20:45:45.893Z,9.07
2023-05-22T20:48:13.786Z,10.75
2023-05-22T20:50:42.167Z,11.43
2023-05-22T20:53:08.891Z,16.60
2023-05-22T20:55:35.750Z,11.05
2023-05-22T20:58:02.509Z,11.05
2023-05-22T21:00:29.973Z,13.48
2023-05-22T21:02:58.353Z,14.32
2023-05-22T21:05:25.824Z,13.18
2023-05-22T21:07:52.468Z,17.27
2023-05-22T21:10:19.079Z,13.55
2023-05-22T21:12:45.922Z,13.70
2023-05-22T21:15:12.583Z,17.40
2023-05-22T21:17:39.310Z,22.75
2023-05-22T21:20:06.733Z,15.73
2023-05-22T21:22:33.462Z,24.20
2023-05-22T21:25:00.067Z,19.90
2023-05-22T21:27:26.684Z,20.73
2023-05-22T21:29:53.281Z,31.70
2023-05-22T21:32:19.924Z,24.67
2023-05-22T21:34:46.798Z,25.35
2023-05-22T21:37:13.480Z,23.95
2023-05-22T21:39:40.708Z,23.33
2023-05-22T21:42:07.674Z,30.00
2023-05-22T21:44:34.310Z,27.25
2023-05-22T21:47:01.204Z,25.70
2023-05-22T21:49:27.905Z,27.15
2023-05-22T21:51:54.645Z,23.35
2023-05-22T21:54:21.289Z,24.50
2023-05-22T21:56:47.915Z,25.50
2023-05-22T21:59:14.841Z,28.35
2023-05-22T22:01:41.575Z,27.15
2023-05-22T22:04:08.423Z,29.85
2023-05-22T22:06:36.837Z,33.40
2023-05-22T22:09:03.842Z,36.75
2023-05-22T22:11:30.818Z,38.55
2023-05-22T22:13:57.508Z,36.17
2023-05-22T22:16:24.508Z,43.13
2023-05-22T22:18:51.426Z,45.50
2023-05-22T22:21:18.185Z,38.33
2023-05-22T22:23:44.824Z,41.30
2023-05-22T22:26:12.732Z,41.78
2023-05-22T22:28:39.436Z,37.20
2023-05-22T22:31:06.104Z,42.70
2023-05-22T22:33:32.945Z,37.30
2023-05-22T22:36:00.207Z,32.95
2023-05-22T22:38:26.980Z,42.90
2023-05-22T22:40:53.652Z,24.75
2023-05-22T22:43:20.417Z,30.10
2023-05-22T22:45:47.179Z,29.95
2023-05-22T22:48:13.924Z,21.88
2023-05-22T22:50:41.513Z,20.95
2023-05-22T22:53:08.408Z,20.38
2023-05-22T22:55:35.178Z,20.80
2023-05-22T22:58:01.995Z,21.70
2023-05-22T23:00:28.630Z,21.13
2023-05-22T23:02:55.401Z,20.15
2023-05-22T23:05:22.251Z,22.08
2023-05-22T23:07:49.116Z,20.40
2023-05-22T23:10:16.023Z,19.40
2023-05-22T23:12:42.818Z,24.48
2023-05-22T23:15:11.228Z,21.00
2023-05-22T23:17:38.294Z,18.35
2023-05-22T23:20:05.986Z,20.27
2023-05-22T23:22:32.639Z,21.25
2023-05-22T23:24:59.258Z,23.05
2023-05-22T23:27:26.218Z,20.77
2023-05-22T23:29:52.873Z,22.20
2023-05-22T23:32:19.482Z,28.65
2023-05-22T23:34:46.081Z,24.25
2023-05-22T23:37:12.730Z,23.75
2023-05-22T23:39:39.359Z,23.08
2023-05-22T23:42:09.815Z,24.77
2023-05-22T23:44:39.360Z,22.05
2023-05-22T23:47:06.911Z,23.95
2023-05-22T23:49:33.937Z,22.35
2023-05-22T23:52:00.927Z,24.23
2023-05-22T23:54:27.694Z,20.85
2023-05-22T23:56:54.414Z,24.02
2023-05-22T23:59:21.570Z,27.88
